createdAt,value
2018-11-10T00:00:22.528Z,6.60
2018-11-10T00:02:52.471Z,6.50
2018-11-10T00:05:21.767Z,6.50
2018-11-10T00:07:50.262Z,6.40
2018-11-10T00:10:19.795Z,6.40
2018-11-10T00:12:48.690Z,6.50
2018-11-10T00:15:17.234Z,6.50
2018-11-10T00:17:45.859Z,6.50
2018-11-10T00:20:14.280Z,6.50
2018-11-10T00:22:43.543Z,6.50
2018-11-10T00:25:13.425Z,6.50
2018-11-10T00:27:42.895Z,6.50
2018-11-10T00:30:14.249Z,6.50
2018-11-10T00:32:43.448Z,6.50
2018-11-10T00:35:12.366Z,6.60
2018-11-10T00:37:40.893Z,6.60
2018-11-10T00:40:11.455Z,6.60
2018-11-10T00:42:40.640Z,6.60
2018-11-10T00:45:09.420Z,6.60
2018-11-10T00:47:38.431Z,6.60
2018-11-10T00:50:07.332Z,6.60
2018-11-10T00:52:35.786Z,6.60
2018-11-10T00:55:04.334Z,6.60
2018-11-10T00:57:32.840Z,6.60
2018-11-10T01:00:01.272Z,6.60
2018-11-10T01:02:29.740Z,6.60
2018-11-10T01:04:58.163Z,6.60
2018-11-10T01:07:26.597Z,6.60
2018-11-10T01:09:55.044Z,6.60
2018-11-10T01:12:23.502Z,6.60
2018-11-10T01:14:52.931Z,6.60
2018-11-10T01:17:21.339Z,6.60
2018-11-10T01:19:49.705Z,6.60
2018-11-10T01:22:18.128Z,6.60
2018-11-10T01:24:47.024Z,6.60
2018-11-10T01:27:15.348Z,6.60
2018-11-10T01:29:43.792Z,6.60
2018-11-10T01:32:12.235Z,6.60
2018-11-10T01:34:41.340Z,6.60
2018-11-10T01:37:09.740Z,6.60
2018-11-10T01:39:38.436Z,6.60
2018-11-10T01:42:07.088Z,6.60
2018-11-10T01:44:35.471Z,6.50
2018-11-10T01:47:03.836Z,6.60
2018-11-10T01:49:32.302Z,6.60
2018-11-10T01:52:00.798Z,6.60
2018-11-10T01:54:29.274Z,6.60
2018-11-10T01:56:57.725Z,6.50
2018-11-10T01:59:26.157Z,6.50
2018-11-10T02:01:54.571Z,6.50
2018-11-10T02:04:22.969Z,6.50
2018-11-10T02:06:51.490Z,6.50
2018-11-10T02:09:19.863Z,6.50
2018-11-10T02:11:48.333Z,6.50
2018-11-10T02:14:16.794Z,6.50
2018-11-10T02:16:46.094Z,6.50
2018-11-10T02:19:14.525Z,6.50
2018-11-10T02:21:42.924Z,6.50
2018-11-10T02:24:11.428Z,6.50
2018-11-10T02:26:39.893Z,6.50
2018-11-10T02:29:08.321Z,6.40
2018-11-10T02:31:36.777Z,6.50
2018-11-10T02:34:05.751Z,6.40
2018-11-10T02:36:34.178Z,6.50
2018-11-10T02:39:02.613Z,6.40
2018-11-10T02:41:31.049Z,6.40
2018-11-10T02:43:59.483Z,6.40
2018-11-10T02:46:27.968Z,6.50
2018-11-10T02:48:56.455Z,6.50
2018-11-10T02:51:24.874Z,6.50
2018-11-10T02:53:53.959Z,6.50
2018-11-10T02:56:24.567Z,6.50
2018-11-10T02:58:52.994Z,6.50
2018-11-10T03:01:21.392Z,6.50
2018-11-10T03:03:49.694Z,6.60
2018-11-10T03:06:18.031Z,6.50
2018-11-10T03:08:46.469Z,6.50
2018-11-10T03:11:15.636Z,6.50
2018-11-10T03:13:44.061Z,6.50
2018-11-10T03:16:12.549Z,6.60
2018-11-10T03:18:40.873Z,6.60
2018-11-10T03:21:09.309Z,6.60
2018-11-10T03:23:37.750Z,6.60
2018-11-10T03:26:06.847Z,6.60
2018-11-10T03:28:35.271Z,6.60
2018-11-10T03:31:03.724Z,6.60
2018-11-10T03:33:32.140Z,6.60
2018-11-10T03:36:00.579Z,6.60
2018-11-10T03:38:29.241Z,6.70
2018-11-10T03:40:57.692Z,6.60
2018-11-10T03:43:26.139Z,6.60
2018-11-10T03:45:54.640Z,6.60
2018-11-10T03:48:23.045Z,6.50
2018-11-10T03:50:51.473Z,6.50
2018-11-10T03:53:19.852Z,6.50
2018-11-10T03:55:48.321Z,6.50
2018-11-10T03:58:16.786Z,6.50
2018-11-10T04:00:45.241Z,6.40
2018-11-10T04:03:13.709Z,6.40
2018-11-10T04:05:42.393Z,6.40
2018-11-10T04:08:10.808Z,6.40
2018-11-10T04:10:39.259Z,6.40
2018-11-10T04:13:07.643Z,6.40
2018-11-10T04:15:36.135Z,6.40
2018-11-10T04:18:04.529Z,6.40
2018-11-10T04:20:32.927Z,6.40
2018-11-10T04:23:01.658Z,6.40
2018-11-10T04:25:30.185Z,6.40
2018-11-10T04:27:58.618Z,6.40
2018-11-10T04:30:27.083Z,6.40
2018-11-10T04:32:55.527Z,6.40
2018-11-10T04:35:23.879Z,6.40
2018-11-10T04:37:52.361Z,6.40
2018-11-10T04:40:21.770Z,6.40
2018-11-10T04:42:50.419Z,6.40
2018-11-10T04:45:19.664Z,6.40
2018-11-10T04:47:48.045Z,6.40
2018-11-10T04:50:16.475Z,6.40
2018-11-10T04:52:44.868Z,6.40
2018-11-10T04:55:13.759Z,6.40
2018-11-10T04:57:42.797Z,6.30
2018-11-10T05:00:14.583Z,6.30
2018-11-10T05:02:43.986Z,6.30
2018-11-10T05:05:12.483Z,6.30
2018-11-10T05:07:40.880Z,6.30
2018-11-10T05:10:10.302Z,6.30
2018-11-10T05:12:38.879Z,6.30
2018-11-10T05:15:08.562Z,6.30
2018-11-10T05:17:37.052Z,6.30
2018-11-10T05:20:05.762Z,6.30
2018-11-10T05:22:34.307Z,6.30
2018-11-10T05:25:03.071Z,6.30
2018-11-10T05:27:31.599Z,6.30
2018-11-10T05:30:00.483Z,6.30
2018-11-10T05:32:28.877Z,6.30
2018-11-10T05:34:57.279Z,6.30
2018-11-10T05:37:25.720Z,6.30
2018-11-10T05:39:54.175Z,6.30
2018-11-10T05:42:22.650Z,6.30
2018-11-10T05:44:51.772Z,6.30
2018-11-10T05:47:20.169Z,6.30
2018-11-10T05:49:48.560Z,6.40
2018-11-10T05:52:16.988Z,6.30
2018-11-10T05:54:45.687Z,6.40
2018-11-10T05:57:14.189Z,6.40
2018-11-10T05:59:42.916Z,6.40
2018-11-10T06:02:11.319Z,6.30
2018-11-10T06:04:40.500Z,6.30
2018-11-10T06:07:08.894Z,6.30
2018-11-10T06:09:37.448Z,6.30
2018-11-10T06:12:06.002Z,6.30
2018-11-10T06:14:34.424Z,6.30
2018-11-10T06:17:02.900Z,6.30
2018-11-10T06:19:31.656Z,6.30
2018-11-10T06:22:00.698Z,6.30
2018-11-10T06:24:29.108Z,6.30
2018-11-10T06:26:57.539Z,6.30
2018-11-10T06:29:26.032Z,6.30
2018-11-10T06:31:54.459Z,6.20
2018-11-10T06:34:22.904Z,6.20
2018-11-10T06:36:51.300Z,6.20
2018-11-10T06:39:19.773Z,6.30
2018-11-10T06:41:48.513Z,6.30
2018-11-10T06:44:17.141Z,6.30
2018-11-10T06:46:45.648Z,6.40
2018-11-10T06:49:14.128Z,6.40
2018-11-10T06:51:42.976Z,6.40
2018-11-10T06:54:11.533Z,6.40
2018-11-10T06:56:40.005Z,6.40
2018-11-10T06:59:08.698Z,6.40
2018-11-10T07:01:37.189Z,6.40
2018-11-10T07:04:05.895Z,6.40
2018-11-10T07:06:34.408Z,6.40
2018-11-10T07:09:02.871Z,6.40
2018-11-10T07:11:33.117Z,6.40
2018-11-10T07:14:01.552Z,6.40
2018-11-10T07:16:30.073Z,6.40
2018-11-10T07:18:58.479Z,6.50
2018-11-10T07:21:29.228Z,6.50
2018-11-10T07:23:57.735Z,6.50
2018-11-10T07:26:26.465Z,6.50
2018-11-10T07:28:55.039Z,6.50
2018-11-10T07:31:23.904Z,6.60
2018-11-10T07:33:53.144Z,6.60
2018-11-10T07:36:21.597Z,6.70
2018-11-10T07:38:50.021Z,6.70
2018-11-10T07:41:18.814Z,6.70
2018-11-10T07:43:47.304Z,6.80
2018-11-10T07:46:15.655Z,6.80
2018-11-10T07:48:44.173Z,6.80
2018-11-10T07:51:12.716Z,6.80
2018-11-10T07:53:41.235Z,6.80
2018-11-10T07:56:09.786Z,6.90
2018-11-10T07:58:38.260Z,6.90
2018-11-10T08:01:06.961Z,7.00
2018-11-10T08:03:35.461Z,7.00
2018-11-10T08:06:04.133Z,7.00
2018-11-10T08:08:32.520Z,7.00
2018-11-10T08:11:00.969Z,7.00
2018-11-10T08:13:29.392Z,7.10
2018-11-10T08:15:58.308Z,7.10
2018-11-10T08:18:26.740Z,7.20
2018-11-10T08:20:55.162Z,7.20
2018-11-10T08:23:23.604Z,7.30
2018-11-10T08:25:51.919Z,7.30
2018-11-10T08:28:20.350Z,7.40
2018-11-10T08:30:48.781Z,7.40
2018-11-10T08:33:17.166Z,7.50
2018-11-10T08:35:45.608Z,7.50
2018-11-10T08:38:16.164Z,7.60
2018-11-10T08:40:44.704Z,7.60
2018-11-10T08:43:13.217Z,7.70
2018-11-10T08:45:41.665Z,7.80
2018-11-10T08:48:10.919Z,7.80
2018-11-10T08:50:39.428Z,7.80
2018-11-10T08:53:10.859Z,7.90
2018-11-10T08:55:39.274Z,7.90
2018-11-10T08:58:07.711Z,8.00
2018-11-10T09:00:36.087Z,8.00
2018-11-10T09:03:05.118Z,8.00
2018-11-10T09:05:33.544Z,8.00
2018-11-10T09:08:01.958Z,8.00
2018-11-10T09:10:30.435Z,8.00
2018-11-10T09:12:58.859Z,8.00
2018-11-10T09:15:27.227Z,8.10
2018-11-10T09:17:55.812Z,8.00
2018-11-10T09:20:24.210Z,7.90
2018-11-10T09:22:52.628Z,7.90
2018-11-10T09:25:21.112Z,7.90
2018-11-10T09:27:50.412Z,8.00
2018-11-10T09:30:19.035Z,8.00
2018-11-10T09:32:47.432Z,8.10
2018-11-10T09:35:16.102Z,8.10
2018-11-10T09:37:44.505Z,8.10
2018-11-10T09:40:14.382Z,8.10
2018-11-10T09:42:43.314Z,8.10
2018-11-10T09:45:12.984Z,8.10
2018-11-10T09:47:41.542Z,8.10
2018-11-10T09:50:17.608Z,8.20
2018-11-10T09:52:46.171Z,8.30
2018-11-10T09:55:15.722Z,8.40
2018-11-10T09:57:44.308Z,8.40
2018-11-10T10:00:16.218Z,8.40
2018-11-10T10:02:45.087Z,8.40
2018-11-10T10:05:14.242Z,8.50
2018-11-10T10:07:43.553Z,8.50
2018-11-10T10:10:13.688Z,8.60
2018-11-10T10:12:42.652Z,8.60
2018-11-10T10:15:12.859Z,8.60
2018-11-10T10:17:42.374Z,8.60
2018-11-10T10:20:13.860Z,8.60
2018-11-10T10:22:42.548Z,8.70
2018-11-10T10:25:13.004Z,8.70
2018-11-10T10:27:42.008Z,8.70
2018-11-10T10:30:14.714Z,8.60
2018-11-10T10:32:43.947Z,8.70
2018-11-10T10:35:12.760Z,8.80
2018-11-10T10:37:41.467Z,8.90
2018-11-10T10:40:12.491Z,9.00
2018-11-10T10:42:40.987Z,9.10
2018-11-10T10:45:11.706Z,9.20
2018-11-10T10:47:41.324Z,9.30
2018-11-10T10:50:11.478Z,9.30
2018-11-10T10:52:39.942Z,9.30
2018-11-10T10:55:10.884Z,9.30
2018-11-10T10:57:39.364Z,9.30
2018-11-10T11:00:14.872Z,9.40
2018-11-10T11:02:49.486Z,9.40
2018-11-10T11:05:24.124Z,9.50
2018-11-10T11:07:52.884Z,9.60
2018-11-10T11:10:21.463Z,9.70
2018-11-10T11:12:50.032Z,9.70
2018-11-10T11:15:18.553Z,9.70
2018-11-10T11:17:47.546Z,9.80
2018-11-10T11:20:16.367Z,9.90
2018-11-10T11:22:44.805Z,10.00
2018-11-10T11:25:14.081Z,9.90
2018-11-10T11:27:42.569Z,9.80
2018-11-10T11:30:11.253Z,9.80
2018-11-10T11:32:40.293Z,9.80
2018-11-10T11:35:10.604Z,9.80
2018-11-10T11:37:39.533Z,9.90
2018-11-10T11:40:09.352Z,10.00
2018-11-10T11:42:38.160Z,10.10
2018-11-10T11:45:07.488Z,10.10
2018-11-10T11:47:35.952Z,10.30
2018-11-10T11:50:04.995Z,10.30
2018-11-10T11:52:33.449Z,10.30
2018-11-10T11:55:02.271Z,10.30
2018-11-10T11:57:30.900Z,10.40
2018-11-10T11:59:59.208Z,10.50
2018-11-10T12:02:30.560Z,10.60
2018-11-10T12:05:02.805Z,10.80
2018-11-10T12:07:31.481Z,10.90
2018-11-10T12:09:59.991Z,11.10
2018-11-10T12:12:28.435Z,11.20
2018-11-10T12:14:56.957Z,11.40
2018-11-10T12:17:25.801Z,11.70
2018-11-10T12:19:54.197Z,11.90
2018-11-10T12:22:22.790Z,12.00
2018-11-10T12:24:51.462Z,12.10
2018-11-10T12:27:20.415Z,12.00
2018-11-10T12:29:48.924Z,12.00
2018-11-10T12:32:17.612Z,11.70
2018-11-10T12:34:46.159Z,11.80
2018-11-10T12:37:14.699Z,12.00
2018-11-10T12:39:43.185Z,12.30
2018-11-10T12:42:11.654Z,12.60
2018-11-10T12:44:40.425Z,12.80
2018-11-10T12:47:08.926Z,13.10
2018-11-10T12:49:37.383Z,13.30
2018-11-10T12:52:06.196Z,13.60
2018-11-10T12:54:34.862Z,13.70
2018-11-10T12:57:04.254Z,13.90
2018-11-10T12:59:33.603Z,14.10
2018-11-10T13:02:02.025Z,14.30
2018-11-10T13:04:30.537Z,14.50
2018-11-10T13:06:59.017Z,14.60
2018-11-10T13:09:27.820Z,14.60
2018-11-10T13:11:56.427Z,14.60
2018-11-10T13:14:24.771Z,14.70
2018-11-10T13:16:53.157Z,14.70
2018-11-10T13:19:21.560Z,14.70
2018-11-10T13:21:50.039Z,14.70
2018-11-10T13:24:18.637Z,14.60
2018-11-10T13:26:47.057Z,14.40
2018-11-10T13:29:15.558Z,14.30
2018-11-10T13:31:44.278Z,14.10
2018-11-10T13:34:12.543Z,14.00
2018-11-10T13:36:41.044Z,13.90
2018-11-10T13:39:10.268Z,13.80
2018-11-10T13:41:38.852Z,13.70
2018-11-10T13:44:07.290Z,13.50
2018-11-10T13:46:35.684Z,13.30
2018-11-10T13:49:04.175Z,13.10
2018-11-10T13:51:32.761Z,12.80
2018-11-10T13:54:01.068Z,12.50
2018-11-10T13:56:29.535Z,12.30
2018-11-10T13:58:58.004Z,12.20
2018-11-10T14:01:26.425Z,12.10
2018-11-10T14:03:55.538Z,11.90
2018-11-10T14:06:25.356Z,11.80
2018-11-10T14:08:56.497Z,11.60
2018-11-10T14:11:24.920Z,11.60
2018-11-10T14:13:53.383Z,11.50
2018-11-10T14:16:21.827Z,11.30
2018-11-10T14:18:50.277Z,11.20
2018-11-10T14:21:18.689Z,11.10
2018-11-10T14:23:47.198Z,11.00
2018-11-10T14:26:15.640Z,10.90
2018-11-10T14:28:44.124Z,10.80
2018-11-10T14:31:13.467Z,10.70
2018-11-10T14:33:42.311Z,10.60
2018-11-10T14:36:11.023Z,10.50
2018-11-10T14:38:43.438Z,10.40
2018-11-10T14:41:13.262Z,10.30
2018-11-10T14:43:41.756Z,10.10
2018-11-10T14:46:10.259Z,10.00
2018-11-10T14:48:38.930Z,9.90
2018-11-10T14:51:08.110Z,9.80
2018-11-10T14:53:36.540Z,9.60
2018-11-10T14:56:05.395Z,9.50
2018-11-10T14:58:33.845Z,9.40
2018-11-10T15:01:02.208Z,9.30
2018-11-10T15:03:30.706Z,9.20
2018-11-10T15:05:59.111Z,9.10
2018-11-10T15:08:27.558Z,9.10
2018-11-10T15:10:55.969Z,8.90
2018-11-10T15:13:24.369Z,8.80
2018-11-10T15:15:53.002Z,8.80
2018-11-10T15:18:21.683Z,8.70
2018-11-10T15:20:49.899Z,8.60
2018-11-10T15:23:18.276Z,8.50
2018-11-10T15:25:46.704Z,8.40
2018-11-10T15:28:15.189Z,8.30
2018-11-10T15:30:43.646Z,8.20
2018-11-10T15:33:12.052Z,8.20
2018-11-10T15:35:40.533Z,8.10
2018-11-10T15:38:08.947Z,8.00
2018-11-10T15:40:37.726Z,7.90
2018-11-10T15:43:06.208Z,7.90
2018-11-10T15:45:34.614Z,7.90
2018-11-10T15:48:03.029Z,7.90
2018-11-10T15:50:31.526Z,8.00
2018-11-10T15:52:59.959Z,8.00
2018-11-10T15:55:28.419Z,8.00
2018-11-10T15:57:57.124Z,8.00
2018-11-10T16:00:25.608Z,8.00
2018-11-10T16:02:54.117Z,8.10
2018-11-10T16:05:22.553Z,8.10
2018-11-10T16:07:51.076Z,8.10
2018-11-10T16:10:19.785Z,8.10
2018-11-10T16:12:48.574Z,8.10
2018-11-10T16:15:19.015Z,8.20
2018-11-10T16:17:48.670Z,8.20
2018-11-10T16:20:19.480Z,8.20
2018-11-10T16:22:49.371Z,8.20
2018-11-10T16:25:18.432Z,8.20
2018-11-10T16:27:47.307Z,8.20
2018-11-10T16:30:18.675Z,8.20
2018-11-10T16:32:47.658Z,8.20
2018-11-10T16:35:17.327Z,8.20
2018-11-10T16:37:45.836Z,8.30
2018-11-10T16:40:15.834Z,8.20
2018-11-10T16:42:46.278Z,8.20
2018-11-10T16:45:15.596Z,8.20
2018-11-10T16:47:44.697Z,8.20
2018-11-10T16:50:13.200Z,8.20
2018-11-10T16:52:42.324Z,8.30
2018-11-10T16:55:10.762Z,8.30
2018-11-10T16:57:39.548Z,8.30
2018-11-10T17:00:09.883Z,8.30
2018-11-10T17:02:38.360Z,8.30
2018-11-10T17:05:07.458Z,8.30
2018-11-10T17:07:36.160Z,8.30
2018-11-10T17:10:05.027Z,8.30
2018-11-10T17:12:33.510Z,8.30
2018-11-10T17:15:01.933Z,8.20
2018-11-10T17:17:31.477Z,8.20
2018-11-10T17:20:00.627Z,8.20
2018-11-10T17:22:29.872Z,8.20
2018-11-10T17:24:58.946Z,8.20
2018-11-10T17:27:27.338Z,8.20
2018-11-10T17:29:55.845Z,8.20
2018-11-10T17:32:24.361Z,8.20
2018-11-10T17:34:52.808Z,8.20
2018-11-10T17:37:21.188Z,8.20
2018-11-10T17:39:49.820Z,8.20
2018-11-10T17:42:18.577Z,8.20
2018-11-10T17:44:46.991Z,8.20
2018-11-10T17:47:15.417Z,8.20
2018-11-10T17:49:43.882Z,8.20
2018-11-10T17:52:12.517Z,8.10
2018-11-10T17:54:40.866Z,8.10
2018-11-10T17:57:09.320Z,8.10
2018-11-10T17:59:37.800Z,8.00
2018-11-10T18:02:06.326Z,8.00
2018-11-10T18:04:34.706Z,8.00
2018-11-10T18:07:03.635Z,8.00
2018-11-10T18:09:32.098Z,7.90
2018-11-10T18:12:01.550Z,7.90
2018-11-10T18:14:30.012Z,7.90
2018-11-10T18:16:58.455Z,7.90
2018-11-10T18:19:26.936Z,7.90
2018-11-10T18:21:55.425Z,7.90
2018-11-10T18:24:23.847Z,7.80
2018-11-10T18:26:52.321Z,7.70
2018-11-10T18:29:20.755Z,7.70
2018-11-10T18:31:49.131Z,7.60
2018-11-10T18:34:18.377Z,7.60
2018-11-10T18:36:46.818Z,7.60
2018-11-10T18:39:16.996Z,7.60
2018-11-10T18:41:45.384Z,7.60
2018-11-10T18:44:13.817Z,7.50
2018-11-10T18:46:42.445Z,7.50
2018-11-10T18:49:10.819Z,7.50
2018-11-10T18:51:39.193Z,7.50
2018-11-10T18:54:07.627Z,7.50
2018-11-10T18:56:36.036Z,7.40
2018-11-10T18:59:07.603Z,7.40
2018-11-10T19:01:39.182Z,7.40
2018-11-10T19:04:07.660Z,7.40
2018-11-10T19:06:37.164Z,7.30
2018-11-10T19:09:09.236Z,7.30
2018-11-10T19:11:37.661Z,7.30
2018-11-10T19:14:06.790Z,7.30
2018-11-10T19:16:35.372Z,7.20
2018-11-10T19:19:03.848Z,7.20
2018-11-10T19:21:32.911Z,7.20
2018-11-10T19:24:01.692Z,7.20
2018-11-10T19:26:30.444Z,7.20
2018-11-10T19:28:58.863Z,7.20
2018-11-10T19:31:27.321Z,7.20
2018-11-10T19:33:55.806Z,7.20
2018-11-10T19:36:24.184Z,7.20
2018-11-10T19:38:52.683Z,7.10
2018-11-10T19:41:21.121Z,7.10
2018-11-10T19:43:49.672Z,7.10
2018-11-10T19:46:18.080Z,7.00
2018-11-10T19:48:46.545Z,6.90
2018-11-10T19:51:16.033Z,6.90
2018-11-10T19:53:44.740Z,6.80
2018-11-10T19:56:13.567Z,6.80
2018-11-10T19:58:47.929Z,6.80
2018-11-10T20:01:16.367Z,6.90
2018-11-10T20:03:45.494Z,6.80
2018-11-10T20:06:13.922Z,6.80
2018-11-10T20:08:42.447Z,6.70
2018-11-10T20:11:11.680Z,6.70
2018-11-10T20:13:40.096Z,6.70
2018-11-10T20:16:08.543Z,6.80
2018-11-10T20:18:36.988Z,6.80
2018-11-10T20:21:12.109Z,6.90
2018-11-10T20:23:40.574Z,6.90
2018-11-10T20:26:09.644Z,6.90
2018-11-10T20:28:38.077Z,6.90
2018-11-10T20:31:06.560Z,7.00
2018-11-10T20:33:35.213Z,7.00
2018-11-10T20:36:03.633Z,7.00
2018-11-10T20:38:32.032Z,7.00
2018-11-10T20:41:00.443Z,7.00
2018-11-10T20:43:29.453Z,7.00
2018-11-10T20:45:58.012Z,6.90
2018-11-10T20:48:26.510Z,6.90
2018-11-10T20:50:54.920Z,6.90
2018-11-10T20:53:23.384Z,6.90
2018-11-10T20:55:51.855Z,6.80
2018-11-10T20:58:20.289Z,6.80
2018-11-10T21:00:48.808Z,6.70
2018-11-10T21:03:17.184Z,6.70
2018-11-10T21:05:46.650Z,6.70
2018-11-10T21:08:15.036Z,6.70
2018-11-10T21:10:44.432Z,6.70
2018-11-10T21:13:12.809Z,6.70
2018-11-10T21:15:41.225Z,6.70
2018-11-10T21:18:09.687Z,6.70
2018-11-10T21:20:38.133Z,6.60
2018-11-10T21:23:06.503Z,6.50
2018-11-10T21:25:35.040Z,6.50
2018-11-10T21:28:03.486Z,6.50
2018-11-10T21:30:32.219Z,6.50
2018-11-10T21:33:00.684Z,6.50
2018-11-10T21:35:29.327Z,6.50
2018-11-10T21:37:57.669Z,6.50
2018-11-10T21:40:26.872Z,6.50
2018-11-10T21:42:56.247Z,6.50
2018-11-10T21:45:24.639Z,6.60
2018-11-10T21:47:53.046Z,6.60
2018-11-10T21:50:22.355Z,6.50
2018-11-10T21:52:50.728Z,6.60
2018-11-10T21:55:20.017Z,6.50
2018-11-10T21:57:49.351Z,6.50
2018-11-10T22:00:19.309Z,6.50
2018-11-10T22:02:47.876Z,6.50
2018-11-10T22:05:16.331Z,6.50
2018-11-10T22:07:44.903Z,6.50
2018-11-10T22:10:14.924Z,6.50
2018-11-10T22:12:46.044Z,6.50
2018-11-10T22:15:21.035Z,6.50
2018-11-10T22:17:49.664Z,6.50
2018-11-10T22:20:19.488Z,6.50
2018-11-10T22:22:47.944Z,6.60
2018-11-10T22:25:17.832Z,6.60
2018-11-10T22:27:48.218Z,6.70
2018-11-10T22:30:18.346Z,6.70
2018-11-10T22:32:47.488Z,6.80
2018-11-10T22:35:16.049Z,6.80
2018-11-10T22:37:44.536Z,6.80
2018-11-10T22:40:15.222Z,6.70
2018-11-10T22:42:44.187Z,6.70
2018-11-10T22:45:15.048Z,6.70
2018-11-10T22:47:43.662Z,6.60
2018-11-10T22:50:18.383Z,6.50
2018-11-10T22:52:46.903Z,6.40
2018-11-10T22:55:15.329Z,6.40
2018-11-10T22:57:44.076Z,6.40
2018-11-10T23:00:31.921Z,6.40
2018-11-10T23:03:01.316Z,6.40
2018-11-10T23:05:29.759Z,6.40
2018-11-10T23:07:58.189Z,6.40
2018-11-10T23:10:26.968Z,6.40
2018-11-10T23:12:55.699Z,6.40
2018-11-10T23:15:24.146Z,6.40
2018-11-10T23:17:52.599Z,6.40
2018-11-10T23:20:21.045Z,6.50
2018-11-10T23:22:49.579Z,6.50
2018-11-10T23:25:19.171Z,6.50
2018-11-10T23:27:47.600Z,6.50
2018-11-10T23:30:18.496Z,6.50
2018-11-10T23:32:47.632Z,6.50
2018-11-10T23:35:16.146Z,6.50
2018-11-10T23:37:46.752Z,6.50
2018-11-10T23:40:16.105Z,6.50
2018-11-10T23:42:46.696Z,6.50
2018-11-10T23:45:15.651Z,6.50
2018-11-10T23:47:44.150Z,6.50
2018-11-10T23:50:14.949Z,6.50
2018-11-10T23:52:43.344Z,6.50
2018-11-10T23:55:13.220Z,6.60
2018-11-10T23:57:41.675Z,6.60
